ADDS METAR Data INFO
IDs: Format: Raw Decoded Include TAF

Data at: 0457 UTC 18 Feb 2018

KMKG 180455Z AUTO 28011KT 10SM OVC019 M01/M04 A3006 RMK AO2 SLP188 T10061044 400061044
KMKG 180355Z 28010KT 10SM BKN025 OVC031 00/M04 A3002 RMK AO2 SNE48 SLP174 LAST P0000 T00001044
KMKG 180307Z 26010KT 7SM -SN FEW007 SCT014 OVC024 01/M03 A3001 RMK AO2 P0000 T00061028
KMKG 180255Z 25011KT 7SM -SN SCT007 BKN014 OVC024 01/M03 A3000 RMK AO2 SLP168 P0000 60004 T00061028 53013
KMKG 180231Z 22006KT 4SM -SN BR SCT007 BKN014 OVC024 M01/M02 A3000 RMK AO2 P0000 T10061022
KMKG 180155Z 23005KT 3SM -SN BR OVC006 M01/M02 A2999 RMK AO2 SLP164 P0001 T10061022
KMKG 180147Z 24007KT 4SM -SN BR BKN006 OVC011 M01/M02 A2999 RMK AO2 P0001 T10061022
KMKG 180127Z 24005KT 2 1/2SM -SN BR BKN006 BKN022 OVC029 M01/M02 A2998 RMK AO2 P0000 T10111022
KMKG 180055Z 26007KT 1/2SM R32/P6000FT -SN BR FEW006 OVC017 M01/M03 A2998 RMK AO2 SFC VIS 1 1/4 SLP160 P0003 T10111028
KMKG 180030Z 25009KT 1/2SM R32/P6000FT -SN BR SCT006 OVC018 M01/M03 A2998 RMK AO2 SFC VIS 1 1/2 P0002 T10111028
KMKG 172355Z 23007KT 1/2SM R32/5000VP6000FT -SN BR BKN007 OVC011 M01/M03 A2997 RMK AO2 SFC VIS 3/4 SLP156 4/003 P0006 60006 T10111033 10000 21011 53006
KMKG 172330Z 22008KT 1/2SM R32/5000V5500FT SN FZFG FEW006 OVC010 M01/M03 A2995 RMK AO2 P0004 T10111028
KMKG 172306Z 22010KT 1/4SM R32/4500V5500FT -SN FZFG FEW007 OVC014 M01/M03 A2995 RMK AO2 TWR VIS 1/2 P0001 T10111033
KMKG 172255Z 21012KT 3/4SM R32/5500VP6000FT -SN SCT007 OVC021 M01/M04 A2995 RMK AO2 SNB08 SLP151 P0000 T10111039
KMKG 172251Z 21013KT 3/4SM R32/6000VP6000FT -SN BR SCT007 OVC025 M01/M03 A2995 RMK AO2 SNB08 CIG 008 RWY 14 P0000
KMKG 172246Z 21012KT 1SM R32/P6000FT -SN BR SCT007 OVC031 M01/M03 A2995 RMK AO2 SNB08 P0000 T10111033
KMKG 172232Z 21014KT 2 1/2SM -SN FEW008 OVC037 M01/M04 A2994 RMK AO2 SNB08 P0000 T10111039
KMKG 172155Z 19011KT 9SM BKN055 OVC070 00/M04 A2993 RMK AO2 SLP143 T00001039
KMKG 172055Z 21013G20KT 10SM FEW017 OVC070 00/M04 A2995 RMK AO2 SLP150 T00001044 56028
KMKG 171955Z 20010KT 10SM SCT019 BKN080 OVC090 M01/M04 A2996 RMK AO2 SLP153 T10061044
KMKG 171855Z 22010KT 10SM FEW017 OVC095 00/M04 A2997 RMK AO2 PRESFR SLP158 T00001044
KMKG 171755Z 20011G19KT 10SM FEW020 BKN090 OVC160 M01/M06 A3003 RMK AO2 SLP179 4/003 933008 T10111061 11011 21039 58015
KMKG 171655Z 20008KT 10SM FEW120 BKN160 OVC220 M02/M07 A3006 RMK AO2 SLP188 T10221067
KMKG 171555Z 19012KT 10SM BKN180 OVC240 M03/M07 A3006 RMK AO2 SLP190 T10281072
KMKG 171455Z 18013KT 10SM BKN180 OVC240 M02/M07 A3008 RMK AO2 SLP195 T10221072 58015
KMKG 171355Z 18009KT 10SM SCT200 OVC240 M02/M08 A3010 RMK AO2 SLP204 T10221083
KMKG 171255Z 21007KT 10SM OVC240 M03/M09 A3012 RMK AO2 SLP211 T10331094
KMKG 171155Z 20007KT 10SM BKN240 M04/M11 A3012 RMK AO2 SLP210 4/003 T10391106 11028 21044 55014
KMKG 171055Z 21007KT 10SM BKN240 M04/M11 A3012 RMK AO2 SLP209 T10441106
KMKG 170955Z AUTO 23011KT 10SM CLR M04/M11 A3014 RMK AO2 SLP214 T10391111
KMKG 170855Z AUTO 22010KT 10SM CLR M03/M09 A3016 RMK AO2 SLP223 T10331094 56019
KMKG 170755Z AUTO 23008KT 10SM CLR M03/M10 A3018 RMK AO2 SLP230 T10331100
KMKG 170655Z AUTO 24008KT 10SM CLR M03/M11 A3020 RMK AO2 SLP235 T10331111
KMKG 170555Z AUTO 25007KT 10SM CLR M03/M11 A3022 RMK AO2 SLP243 T10331111 11033 21067 55008
KMKG 170455Z AUTO 25005KT 10SM CLR M03/M11 A3022 RMK AO2 SLP241 T10331111 400221067
KMKG 170355Z 24006KT 10SM CLR M04/M12 A3023 RMK AO2 SLP244 LAST T10391122
KMKG 170255Z 24004KT 10SM CLR M05/M13 A3025 RMK AO2 SLP252 T10501128 56003
KMKG 170155Z 24004KT 10SM CLR M06/M13 A3025 RMK AO2 SLP254 T10611128
KMKG 170055Z 25003KT 10SM CLR M04/M13 A3025 RMK AO2 SLP253 T10441133
KMKG 162355Z 29006KT 10SM CLR M04/M12 A3026 RMK AO2 SLP254 4/003 T10391122 10006 21044 51011
KMKG 162255Z 30006KT 10SM CLR M03/M11 A3024 RMK AO2 SLP251 T10281106
KMKG 162155Z 29008KT 10SM SCT032 M02/M09 A3024 RMK AO2 SLP250 T10171094
KMKG 162055Z 31007G17KT 10SM BKN037 M01/M08 A3022 RMK AO2 SLP243 T10061083 51017
KMKG 161955Z 31011G19KT 10SM FEW029 BKN042 M01/M08 A3021 RMK AO2 SLP239 T10111083
KMKG 161855Z 30011G19KT 10SM BKN046 M01/M08 A3019 RMK AO2 SLP231 T10061078
KMKG 161755Z 31011KT 10SM BKN047 00/M08 A3017 RMK AO2 SNE08 SLP225 4/004 933008 P0000 60000 T00001078 10006 21022 51012